Time;durP1;ratioP1;P1;durP2;ratioP2;P2;SDS_P1;SDS_P2;PMS_P1;PMS_P2;Temp;Humidity;BMP_temperature;BMP_pressure;BME280_temperature;BME280_humidity;BME280_pressure;Samples;Min_cycle;Max_cycle;Signal;HPM_P1;HPM_P2
2023/02/24 00:02:03;;;;;;;17.43;14.13;;;4.00;85.90;;;;;;4977184;28;20185;-89
2023/02/24 00:04:37;;;;;;;17.67;14.53;;;3.90;85.30;;;;;;4976517;28;20210;-89
2023/02/24 00:07:03;;;;;;;23.27;14.30;;;4.00;85.10;;;;;;4977147;28;20194;-88
2023/02/24 00:09:30;;;;;;;18.73;15.20;;;4.00;84.80;;;;;;4977415;28;20247;-89
2023/02/24 00:11:58;;;;;;;16.00;14.47;;;4.00;84.30;;;;;;4976794;28;20173;-89
2023/02/24 00:14:42;;;;;;;18.20;15.03;;;4.00;84.20;;;;;;4977194;28;20651;-89
2023/02/24 00:21:22;;;;;;;24.77;13.80;;;4.00;84.40;;;;;;4896875;29;20229;-89
2023/02/24 00:27:54;;;;;;;17.37;13.03;;;4.00;84.50;;;;;;5021164;23;20251;-89
2023/02/24 00:30:22;;;;;;;18.60;13.77;;;4.00;84.30;;;;;;4996117;28;20187;-89
2023/02/24 00:32:48;;;;;;;20.13;13.30;;;4.00;84.20;;;;;;4996928;28;20181;-89
2023/02/24 00:35:14;;;;;;;17.33;13.90;;;4.00;84.10;;;;;;4995884;28;20619;-89
2023/02/24 00:37:42;;;;;;;26.73;14.40;;;3.90;84.20;;;;;;4996162;28;20556;-89
2023/02/24 00:40:10;;;;;;;17.50;13.07;;;3.90;84.10;;;;;;4997040;28;20181;-89
2023/02/24 00:42:38;;;;;;;15.33;13.70;;;3.90;84.10;;;;;;4996080;28;20212;-89
2023/02/24 00:45:09;;;;;;;23.37;13.13;;;3.90;83.70;;;;;;4996679;28;20206;-89
2023/02/24 00:47:38;;;;;;;14.37;12.57;;;3.90;83.70;;;;;;4996096;28;20649;-89
2023/02/24 00:50:04;;;;;;;18.87;13.00;;;4.00;83.30;;;;;;4995930;28;20208;-88
2023/02/24 00:52:30;;;;;;;14.93;13.40;;;4.00;83.40;;;;;;4996051;28;20184;-89
2023/02/24 00:54:57;;;;;;;20.87;13.70;;;4.00;83.20;;;;;;4995831;28;20695;-89
2023/02/24 00:57:23;;;;;;;14.30;12.90;;;4.00;83.10;;;;;;4995918;28;20183;-89
2023/02/24 00:59:50;;;;;;;15.90;12.40;;;4.00;82.70;;;;;;4995953;28;20249;-89
2023/02/24 01:02:16;;;;;;;25.67;13.20;;;4.00;82.90;;;;;;4995731;28;20178;-89
2023/02/24 01:04:43;;;;;;;20.13;15.30;;;4.00;82.90;;;;;;4995796;28;20177;-88
2023/02/24 01:07:10;;;;;;;13.70;12.40;;;4.00;83.20;;;;;;4996571;28;20198;-88
2023/02/24 01:09:37;;;;;;;14.23;12.50;;;3.90;82.80;;;;;;4995969;28;20184;-89
2023/02/24 01:14:51;;;;;;;14.87;12.73;;;3.90;83.00;;;;;;5013848;28;20579;-89
2023/02/24 01:17:19;;;;;;;17.40;12.47;;;3.90;83.00;;;;;;4999285;28;20197;-89
2023/02/24 01:19:48;;;;;;;19.83;12.90;;;3.90;82.50;;;;;;4999663;28;20183;-88
2023/02/24 01:22:15;;;;;;;24.40;13.53;;;3.90;82.90;;;;;;4999461;28;20643;-89
2023/02/24 01:24:42;;;;;;;18.03;14.50;;;3.80;83.50;;;;;;4999305;28;20180;-89
2023/02/24 01:27:09;;;;;;;15.67;13.60;;;3.90;83.80;;;;;;4999622;28;20586;-89
2023/02/24 01:29:38;;;;;;;19.90;13.50;;;3.90;83.60;;;;;;4999596;28;20228;-91
2023/02/24 01:32:11;;;;;;;16.07;14.40;;;3.80;84.00;;;;;;5000345;28;20179;-90
2023/02/24 01:34:37;;;;;;;14.17;12.80;;;3.80;84.10;;;;;;4999456;28;20651;-90
2023/02/24 01:37:03;;;;;;;23.17;13.73;;;3.80;84.20;;;;;;4999505;28;20716;-89
2023/02/24 01:39:29;;;;;;;14.97;13.47;;;3.70;84.60;;;;;;4999293;28;20179;-90
2023/02/24 01:41:54;;;;;;;19.60;13.17;;;3.70;84.80;;;;;;4999442;28;20170;-90
2023/02/24 01:44:23;;;;;;;17.03;14.40;;;3.60;84.80;;;;;;4999333;28;20365;-89
2023/02/24 01:46:52;;;;;;;19.53;14.63;;;3.60;84.90;;;;;;4998834;28;20671;-89
2023/02/24 01:49:23;;;;;;;15.27;13.60;;;3.60;85.20;;;;;;4998733;28;20253;-89
2023/02/24 01:51:57;;;;;;;13.50;12.30;;;3.60;85.30;;;;;;4998869;28;20172;-89
2023/02/24 01:54:26;;;;;;;18.07;15.20;;;3.70;85.10;;;;;;4998779;28;20179;-89
2023/02/24 01:56:54;;;;;;;19.07;15.60;;;3.70;85.40;;;;;;4998652;28;20200;-89
2023/02/24 01:59:24;;;;;;;16.23;14.50;;;3.70;85.60;;;;;;4998638;28;20177;-89
2023/02/24 02:01:54;;;;;;;21.17;14.17;;;3.70;85.60;;;;;;4998703;28;20734;-89
2023/02/24 02:04:35;;;;;;;15.07;13.83;;;3.70;85.70;;;;;;4998546;28;20222;-89
2023/02/24 02:07:01;;;;;;;18.90;15.60;;;3.70;85.80;;;;;;4998780;28;20196;-89
2023/02/24 02:09:27;;;;;;;18.47;14.47;;;3.60;85.90;;;;;;4998466;28;20177;-89
2023/02/24 02:11:53;;;;;;;15.73;14.47;;;3.60;85.90;;;;;;4998475;28;20642;-89
2023/02/24 02:14:22;;;;;;;16.53;14.47;;;3.60;86.00;;;;;;4998365;28;20190;-89
2023/02/24 02:17:14;;;;;;;20.07;14.33;;;3.50;85.60;;;;;;4998305;28;20201;-89
2023/02/24 02:20:14;;;;;;;16.43;14.83;;;3.60;85.50;;;;;;5000103;28;20183;-89
2023/02/24 02:22:49;;;;;;;15.50;13.87;;;3.70;85.50;;;;;;4998183;28;20207;-89
2023/02/24 02:25:34;;;;;;;15.87;13.73;;;3.70;85.30;;;;;;4998214;28;20230;-89
2023/02/24 02:28:12;;;;;;;15.97;13.70;;;3.70;84.90;;;;;;4997447;28;20223;-88
2023/02/24 02:31:14;;;;;;;13.67;12.37;;;3.70;84.80;;;;;;4998030;28;20181;-89
2023/02/24 02:33:58;;;;;;;15.07;13.40;;;3.70;84.70;;;;;;4998370;28;20171;-88
2023/02/24 02:36:28;;;;;;;18.67;13.10;;;3.70;84.50;;;;;;4997958;28;20195;-89
2023/02/24 02:39:07;;;;;;;15.50;13.97;;;3.80;84.70;;;;;;4997919;28;20175;-89
2023/02/24 02:42:03;;;;;;;18.43;13.40;;;3.80;84.80;;;;;;4998307;28;20203;-89
2023/02/24 02:44:38;;;;;;;19.70;14.07;;;3.70;85.10;;;;;;4997791;28;20199;-89
2023/02/24 02:47:23;;;;;;;16.13;12.77;;;3.80;84.90;;;;;;4997836;28;20200;-89
2023/02/24 02:49:55;;;;;;;19.37;13.13;;;3.80;84.90;;;;;;4998652;28;20166;-89
2023/02/24 02:52:42;;;;;;;18.33;13.40;;;3.80;84.80;;;;;;4997927;28;20513;-89
2023/02/24 02:55:20;;;;;;;14.93;12.20;;;3.80;84.90;;;;;;4997835;28;20170;-89
2023/02/24 02:57:50;;;;;;;16.00;14.37;;;3.80;84.80;;;;;;4998490;28;20196;-89
2023/02/24 03:00:27;;;;;;;15.43;13.83;;;3.80;85.10;;;;;;4997683;28;20249;-89
2023/02/24 03:02:57;;;;;;;20.37;14.13;;;3.80;84.90;;;;;;4997516;28;20257;-88
2023/02/24 03:05:28;;;;;;;20.93;13.50;;;3.80;85.10;;;;;;4997595;28;20259;-88
2023/02/24 03:07:57;;;;;;;15.13;12.90;;;3.80;84.70;;;;;;4997383;28;20175;-89
2023/02/24 03:10:26;;;;;;;14.47;12.97;;;3.80;85.00;;;;;;4997349;28;20176;-89
2023/02/24 03:12:58;;;;;;;26.43;13.33;;;3.80;84.60;;;;;;4997170;28;20180;-89
2023/02/24 03:15:26;;;;;;;12.13;11.10;;;3.80;84.10;;;;;;4998050;28;20206;-89
2023/02/24 03:17:56;;;;;;;14.47;13.17;;;3.80;84.30;;;;;;4997370;28;20326;-89
2023/02/24 03:20:45;;;;;;;17.37;13.27;;;3.80;84.20;;;;;;4997759;28;20302;-89
2023/02/24 03:23:15;;;;;;;15.20;12.63;;;3.80;84.50;;;;;;4997381;28;20201;-89
2023/02/24 03:26:17;;;;;;;14.60;12.30;;;3.80;84.70;;;;;;4996825;28;20205;-89
2023/02/24 03:29:11;;;;;;;15.43;14.13;;;3.90;84.60;;;;;;4993004;28;20197;-89
2023/02/24 03:31:59;;;;;;;18.57;13.07;;;3.80;85.00;;;;;;4996941;28;20177;-89
2023/02/24 03:34:36;;;;;;;20.13;14.53;;;3.80;85.00;;;;;;4996829;28;20186;-89
2023/02/24 03:37:02;;;;;;;22.10;14.77;;;3.70;85.20;;;;;;4996759;28;20267;-89
2023/02/24 03:39:28;;;;;;;17.97;14.87;;;3.70;85.20;;;;;;4995837;28;20185;-89
2023/02/24 03:42:01;;;;;;;17.57;15.67;;;3.70;85.40;;;;;;4996783;28;20186;-89
2023/02/24 03:44:27;;;;;;;23.93;15.17;;;3.70;85.50;;;;;;4996574;28;20201;-88
2023/02/24 03:46:54;;;;;;;16.37;13.10;;;3.60;85.30;;;;;;4996622;28;20247;-89
2023/02/24 03:49:21;;;;;;;21.20;14.20;;;3.60;85.10;;;;;;4996625;28;20184;-89
2023/02/24 03:52:20;;;;;;;17.10;15.30;;;3.60;85.50;;;;;;4996477;28;20173;-89
2023/02/24 03:55:17;;;;;;;16.00;14.43;;;3.60;85.50;;;;;;4996858;28;20206;-88
2023/02/24 03:58:01;;;;;;;16.33;14.73;;;3.60;85.60;;;;;;4996399;28;20665;-89
2023/02/24 04:00:34;;;;;;;17.20;14.60;;;3.60;85.80;;;;;;4996405;28;20224;-90
2023/02/24 04:03:05;;;;;;;15.10;13.67;;;3.60;85.70;;;;;;4996389;28;20623;-89
2023/02/24 04:05:34;;;;;;;17.80;14.90;;;3.60;85.90;;;;;;4996354;28;20695;-89
2023/02/24 04:08:07;;;;;;;15.90;14.10;;;3.60;85.90;;;;;;4996291;28;20173;-89
2023/02/24 04:10:53;;;;;;;16.00;14.80;;;3.60;85.80;;;;;;4996338;28;20177;-89
2023/02/24 04:13:42;;;;;;;17.03;13.60;;;3.60;86.10;;;;;;4996503;28;20177;-89
2023/02/24 04:16:26;;;;;;;16.43;14.80;;;3.60;86.00;;;;;;4996240;28;20635;-89
2023/02/24 04:18:57;;;;;;;17.90;14.50;;;3.70;86.40;;;;;;4996554;28;20621;-89
2023/02/24 04:21:26;;;;;;;16.37;14.33;;;3.60;86.40;;;;;;4996215;28;20166;-89
2023/02/24 04:23:53;;;;;;;16.43;14.80;;;3.70;86.70;;;;;;4996053;28;20201;-88
2023/02/24 04:26:19;;;;;;;16.40;14.67;;;3.70;86.80;;;;;;4996349;28;20559;-89
2023/02/24 04:28:47;;;;;;;22.33;14.63;;;3.70;87.00;;;;;;4996822;28;20182;-89
2023/02/24 04:31:17;;;;;;;16.13;14.87;;;3.70;87.00;;;;;;4996159;28;20175;-89
2023/02/24 04:33:49;;;;;;;17.23;15.73;;;3.60;87.30;;;;;;4995938;28;20181;-88
2023/02/24 04:36:17;;;;;;;21.53;16.40;;;3.60;87.40;;;;;;4995819;28;20202;-89
2023/02/24 04:38:44;;;;;;;19.37;15.27;;;3.60;87.70;;;;;;4995845;28;20181;-89
2023/02/24 04:41:10;;;;;;;17.07;15.30;;;3.50;87.50;;;;;;4995942;28;20186;-89
2023/02/24 04:43:37;;;;;;;15.77;14.13;;;3.60;87.40;;;;;;4995767;28;20233;-88
2023/02/24 04:46:06;;;;;;;17.10;15.33;;;3.50;87.50;;;;;;4996368;28;20203;-90
2023/02/24 04:48:33;;;;;;;17.10;15.57;;;3.50;87.50;;;;;;4995876;28;20174;-89
2023/02/24 04:51:04;;;;;;;17.17;15.40;;;3.50;87.60;;;;;;4997292;28;20180;-89
2023/02/24 04:53:30;;;;;;;21.47;15.87;;;3.50;87.70;;;;;;4999921;28;20220;-88
2023/02/24 04:55:55;;;;;;;16.30;15.00;;;3.50;87.60;;;;;;5000827;28;20206;-89
2023/02/24 04:58:27;;;;;;;16.50;15.30;;;3.50;87.60;;;;;;4999888;28;20187;-89
2023/02/24 05:00:54;;;;;;;17.03;15.80;;;3.50;87.60;;;;;;4999930;28;20216;-89
2023/02/24 05:03:27;;;;;;;18.30;16.20;;;3.60;87.70;;;;;;4999738;28;20590;-89
2023/02/24 05:05:58;;;;;;;17.97;16.13;;;3.60;87.90;;;;;;4999693;28;20588;-89
2023/02/24 05:08:26;;;;;;;16.93;15.40;;;3.60;87.70;;;;;;4999939;28;20237;-89
2023/02/24 05:10:52;;;;;;;17.57;16.07;;;3.60;87.70;;;;;;4999638;28;20181;-88
2023/02/24 05:13:24;;;;;;;17.13;15.40;;;3.60;88.10;;;;;;4999378;28;20664;-89
2023/02/24 05:15:49;;;;;;;20.60;15.50;;;3.50;88.00;;;;;;4999384;28;20205;-89
2023/02/24 05:18:16;;;;;;;17.40;16.00;;;3.60;87.80;;;;;;4999400;28;20531;-89
2023/02/24 05:23:34;;;;;;;16.20;14.83;;;3.60;87.90;;;;;;5017119;28;20690;-89
2023/02/24 05:26:00;;;;;;;20.17;15.90;;;3.60;87.70;;;;;;4999449;28;20205;-89
2023/02/24 05:28:30;;;;;;;18.10;16.20;;;3.60;87.60;;;;;;4999322;28;20169;-89
2023/02/24 05:31:07;;;;;;;18.47;16.20;;;3.70;87.70;;;;;;4999366;28;20188;-88
2023/02/24 05:33:35;;;;;;;20.40;16.80;;;3.70;87.90;;;;;;4999174;28;20173;-89
2023/02/24 05:36:07;;;;;;;19.70;17.93;;;3.60;88.30;;;;;;4999078;28;20240;-89
2023/02/24 05:38:36;;;;;;;20.33;18.83;;;3.60;88.70;;;;;;5016548;28;20260;-88
2023/02/24 05:41:17;;;;;;;21.47;19.20;;;3.60;89.00;;;;;;4999030;28;20593;-88
2023/02/24 05:43:51;;;;;;;21.70;20.20;;;3.50;89.20;;;;;;4999008;28;20196;-89
2023/02/24 05:46:18;;;;;;;22.17;20.60;;;3.50;89.60;;;;;;4998959;28;20198;-88
2023/02/24 05:48:43;;;;;;;31.50;20.30;;;3.40;90.00;;;;;;4998877;28;20270;-89
2023/02/24 05:51:11;;;;;;;22.70;20.70;;;3.40;90.10;;;;;;4998777;28;20614;-89
2023/02/24 05:53:40;;;;;;;23.70;21.60;;;3.30;90.40;;;;;;4998833;28;20186;-88
2023/02/24 05:56:09;;;;;;;24.60;22.17;;;3.30;90.60;;;;;;4998748;28;20757;-88
2023/02/24 05:58:38;;;;;;;26.17;22.87;;;3.30;90.80;;;;;;4998767;28;20673;-89
2023/02/24 06:01:14;;;;;;;26.07;23.70;;;3.30;91.00;;;;;;4998826;28;20181;-89
2023/02/24 06:03:46;;;;;;;26.37;23.90;;;3.20;91.10;;;;;;4997779;28;20203;-88
2023/02/24 06:06:15;;;;;;;27.30;24.90;;;3.20;91.30;;;;;;4998572;28;20296;-88
2023/02/24 06:08:48;;;;;;;26.37;24.20;;;3.30;91.50;;;;;;4998546;28;20200;-89
2023/02/24 06:11:17;;;;;;;27.60;25.40;;;3.30;91.60;;;;;;4998476;28;20265;-89
2023/02/24 06:13:46;;;;;;;28.37;24.23;;;3.30;91.70;;;;;;4999238;28;20186;-89
2023/02/24 06:16:16;;;;;;;27.90;25.37;;;3.20;91.60;;;;;;4998340;28;20247;-89
2023/02/24 06:18:46;;;;;;;26.67;24.37;;;3.20;91.70;;;;;;4998850;28;20169;-89
2023/02/24 06:21:11;;;;;;;28.10;25.33;;;3.20;91.90;;;;;;4998235;28;20647;-89
2023/02/24 06:23:38;;;;;;;32.17;25.80;;;3.20;92.10;;;;;;4998115;28;20266;-87
2023/02/24 06:26:04;;;;;;;30.20;27.07;;;3.20;92.00;;;;;;5015664;28;20209;-89
2023/02/24 06:28:32;;;;;;;29.20;26.17;;;3.20;92.10;;;;;;4998067;28;20169;-90
2023/02/24 06:31:05;;;;;;;30.83;27.63;;;3.20;92.10;;;;;;4998391;28;20185;-89
2023/02/24 06:33:32;;;;;;;28.43;26.43;;;3.20;92.20;;;;;;4997763;28;20247;-89
2023/02/24 06:36:05;;;;;;;31.27;28.53;;;3.20;92.20;;;;;;4997852;28;20271;-89
2023/02/24 06:38:32;;;;;;;30.97;28.60;;;3.20;92.20;;;;;;4998233;28;20647;-89
2023/02/24 06:41:02;;;;;;;31.73;29.23;;;3.20;92.30;;;;;;4997893;28;20211;-89
2023/02/24 06:43:30;;;;;;;33.20;29.97;;;3.20;92.30;;;;;;4997922;28;20336;-89
2023/02/24 06:45:56;;;;;;;30.63;28.37;;;3.20;92.20;;;;;;4997773;28;20200;-88
2023/02/24 06:48:24;;;;;;;32.23;29.73;;;3.20;92.30;;;;;;4997843;28;20173;-89
2023/02/24 06:50:50;;;;;;;32.63;29.80;;;3.20;92.50;;;;;;4997730;28;20174;-89
2023/02/24 06:53:17;;;;;;;34.67;31.50;;;3.10;92.60;;;;;;4998479;28;20188;-90
2023/02/24 06:55:47;;;;;;;35.80;32.73;;;3.10;92.60;;;;;;4997577;28;20295;-89
2023/02/24 06:58:18;;;;;;;34.37;31.27;;;3.10;92.70;;;;;;4998236;28;20253;-90
2023/02/24 07:00:55;;;;;;;35.00;32.47;;;3.10;92.70;;;;;;4998193;28;20212;-88
2023/02/24 07:03:23;;;;;;;35.83;33.10;;;3.10;92.80;;;;;;4997958;28;20289;-89
2023/02/24 07:06:09;;;;;;;36.53;33.87;;;3.00;92.90;;;;;;4997407;28;20206;-89
2023/02/24 07:08:35;;;;;;;35.80;33.37;;;3.00;92.80;;;;;;4997477;28;20257;-89
2023/02/24 07:11:01;;;;;;;39.47;36.33;;;3.00;92.80;;;;;;4997554;28;20215;-89
2023/02/24 07:13:28;;;;;;;40.93;38.13;;;3.10;93.00;;;;;;4997292;28;20706;-90
2023/02/24 07:15:54;;;;;;;42.80;39.13;;;3.10;93.10;;;;;;4997266;28;20590;-89
2023/02/24 07:18:21;;;;;;;44.10;41.00;;;3.00;93.20;;;;;;4997207;28;20185;-88
2023/02/24 07:20:47;;;;;;;43.17;39.33;;;3.00;93.30;;;;;;4997227;28;20705;-89
2023/02/24 07:23:16;;;;;;;48.27;43.80;;;3.00;93.30;;;;;;4997036;28;20244;-89
2023/02/24 07:25:45;;;;;;;45.70;41.83;;;3.00;93.30;;;;;;4996845;28;20197;-89
2023/02/24 07:28:13;;;;;;;46.53;42.43;;;3.00;93.20;;;;;;4996991;28;20615;-89
2023/02/24 07:30:40;;;;;;;48.90;45.13;;;3.00;93.30;;;;;;4997694;28;20185;-89
2023/02/24 07:33:07;;;;;;;51.00;47.13;;;3.00;93.40;;;;;;4997166;28;20239;-89
2023/02/24 07:35:34;;;;;;;52.43;48.80;;;3.00;93.40;;;;;;4997017;28;20628;-89
2023/02/24 07:38:03;;;;;;;54.27;49.97;;;3.00;93.50;;;;;;4996782;28;20181;-89
2023/02/24 07:40:32;;;;;;;55.00;51.43;;;3.00;93.50;;;;;;4997078;28;20276;-89
2023/02/24 07:42:58;;;;;;;51.57;48.20;;;3.00;93.50;;;;;;4996666;28;20640;-89
2023/02/24 07:45:23;;;;;;;52.93;49.03;;;3.00;93.50;;;;;;4996633;28;20202;-89
2023/02/24 07:47:49;;;;;;;51.93;47.97;;;3.00;93.50;;;;;;4997046;28;20181;-90
2023/02/24 07:50:17;;;;;;;53.97;50.17;;;3.00;93.60;;;;;;4997040;28;20177;-89
2023/02/24 07:52:47;;;;;;;54.57;50.90;;;3.00;93.60;;;;;;4996815;28;20178;-89
2023/02/24 07:55:14;;;;;;;58.83;54.83;;;3.00;93.70;;;;;;4996476;28;20184;-89
2023/02/24 07:57:45;;;;;;;56.33;52.73;;;3.00;93.70;;;;;;4996535;28;20188;-89
2023/02/24 08:00:18;;;;;;;61.00;57.10;;;3.00;93.70;;;;;;4997050;28;20174;-89
2023/02/24 08:02:45;;;;;;;58.83;55.17;;;3.00;93.70;;;;;;4996471;28;20195;-89
2023/02/24 08:05:11;;;;;;;58.97;55.13;;;3.00;93.80;;;;;;4996311;28;20268;-89
2023/02/24 08:07:36;;;;;;;62.33;58.30;;;3.00;93.80;;;;;;4996393;28;20679;-89
2023/02/24 08:10:23;;;;;;;63.40;59.37;;;3.00;93.70;;;;;;4996862;28;20174;-89
2023/02/24 08:12:53;;;;;;;62.73;58.73;;;3.00;93.70;;;;;;4996325;28;20627;-89
2023/02/24 08:15:23;;;;;;;63.97;59.80;;;3.00;93.80;;;;;;4996100;28;20208;-88
2023/02/24 08:17:51;;;;;;;65.67;61.77;;;3.00;93.80;;;;;;4996214;28;20188;-89
2023/02/24 08:22:50;;;;;;;66.67;62.50;;;3.00;93.80;;;;;;5014122;28;20227;-89
2023/02/24 08:25:18;;;;;;;66.50;62.10;;;3.10;93.80;;;;;;4996260;28;20180;-89
2023/02/24 08:27:47;;;;;;;68.90;64.40;;;3.00;93.80;;;;;;4995896;28;20255;-88
2023/02/24 08:30:22;;;;;;;63.40;58.93;;;3.10;93.70;;;;;;4996002;28;20238;-89
2023/02/24 08:32:55;;;;;;;64.77;60.77;;;3.10;93.70;;;;;;4995987;28;20184;-88
2023/02/24 08:35:30;;;;;;;66.27;62.17;;;3.10;93.70;;;;;;4995930;28;20204;-89
2023/02/24 08:37:59;;;;;;;63.73;59.90;;;3.10;93.70;;;;;;4996032;28;20172;-88
2023/02/24 08:40:38;;;;;;;65.50;61.67;;;3.10;93.60;;;;;;4996039;28;20224;-90
2023/02/24 08:43:18;;;;;;;69.83;65.40;;;3.10;93.70;;;;;;4996689;28;20201;-90
2023/02/24 08:46:16;;;;;;;67.23;62.50;;;3.10;93.70;;;;;;4996197;28;20204;-88
2023/02/24 08:49:01;;;;;;;74.13;69.70;;;3.10;93.70;;;;;;4995882;28;20552;-88
2023/02/24 08:51:35;;;;;;;75.50;71.10;;;3.20;93.80;;;;;;4996352;28;20177;-90
2023/02/24 08:54:09;;;;;;;76.90;72.20;;;3.20;93.90;;;;;;4996162;28;20173;-89
2023/02/24 08:56:47;;;;;;;75.03;70.60;;;3.20;93.80;;;;;;4996103;28;20200;-90
2023/02/24 08:59:36;;;;;;;75.60;70.93;;;3.20;93.80;;;;;;4996008;28;20224;-90
2023/02/24 09:04:59;;;;;;;73.57;68.90;;;3.20;93.80;;;;;;5013602;28;20204;-90
2023/02/24 09:07:28;;;;;;;77.30;72.20;;;3.20;93.90;;;;;;4996844;28;20628;-90
2023/02/24 09:09:55;;;;;;;73.53;68.83;;;3.30;93.90;;;;;;4996312;28;20228;-88
2023/02/24 09:12:27;;;;;;;76.27;71.63;;;3.20;93.80;;;;;;4995846;28;20274;-87
2023/02/24 09:15:03;;;;;;;78.40;73.50;;;3.20;93.80;;;;;;5013381;28;20188;-86
2023/02/24 09:17:39;;;;;;;79.13;74.10;;;3.30;93.80;;;;;;5013165;28;20162;-87
2023/02/24 09:23:06;;;;;;;83.37;78.23;;;3.30;93.90;;;;;;5013657;28;20710;-89
2023/02/24 09:25:40;;;;;;;87.23;82.23;;;3.30;93.90;;;;;;4995896;28;20209;-90
2023/02/24 09:28:15;;;;;;;85.13;79.80;;;3.40;94.00;;;;;;4997546;28;20681;-90
2023/02/24 09:30:52;;;;;;;88.00;82.40;;;3.40;94.00;;;;;;4995564;28;20265;-88
2023/02/24 09:33:21;;;;;;;80.43;75.80;;;3.50;94.10;;;;;;4995588;28;20185;-89
2023/02/24 09:35:49;;;;;;;83.67;78.77;;;3.40;93.90;;;;;;4995633;28;20233;-90
2023/02/24 09:38:18;;;;;;;79.23;74.23;;;3.50;94.00;;;;;;4998827;28;20210;-90
2023/02/24 09:40:49;;;;;;;77.13;72.13;;;3.50;94.00;;;;;;4999782;28;20231;-89
2023/02/24 09:43:23;;;;;;;75.07;70.87;;;3.50;94.00;;;;;;5018798;28;20281;-89
2023/02/24 09:46:13;;;;;;;75.17;70.90;;;3.50;94.00;;;;;;4999292;28;20249;-89
2023/02/24 09:49:04;;;;;;;77.37;72.80;;;3.60;93.80;;;;;;5000259;28;20633;-90
2023/02/24 09:51:41;;;;;;;78.30;73.63;;;3.60;93.90;;;;;;4999047;28;20196;-90
2023/02/24 09:54:18;;;;;;;77.97;73.07;;;3.60;94.00;;;;;;4999097;28;20181;-88
2023/02/24 09:57:15;;;;;;;75.17;70.77;;;3.70;93.90;;;;;;4999684;28;20746;-90
2023/02/24 09:59:59;;;;;;;72.23;68.03;;;3.70;93.70;;;;;;4998852;28;20180;-89
2023/02/24 10:02:33;;;;;;;79.00;74.40;;;3.80;93.80;;;;;;4998820;28;20181;-89
2023/02/24 10:05:05;;;;;;;83.73;78.67;;;3.70;93.70;;;;;;4998467;28;20185;-89
2023/02/24 10:07:38;;;;;;;88.23;83.23;;;3.80;93.90;;;;;;4998694;28;20177;-90
2023/02/24 10:10:19;;;;;;;79.50;75.07;;;3.80;93.80;;;;;;4998663;28;20175;-90
2023/02/24 10:12:51;;;;;;;81.87;77.00;;;3.80;93.90;;;;;;4998463;28;20178;-90
2023/02/24 10:18:26;;;;;;;87.50;82.53;;;3.80;93.80;;;;;;5016576;28;20167;-90
2023/02/24 10:21:05;;;;;;;83.80;79.03;;;4.00;93.90;;;;;;4998433;28;20252;-90
2023/02/24 10:23:50;;;;;;;;;;;;;;;;;;;;;
2023/02/24 10:32:48;;;;;;;104.97;98.97;;;4.10;94.00;;;;;;4982006;28;20239;-88
2023/02/24 10:35:18;;;;;;;107.80;101.80;;;4.10;94.20;;;;;;5015572;28;20173;-89
2023/02/24 10:37:43;;;;;;;113.97;107.60;;;4.00;94.20;;;;;;4998157;28;20213;-89
2023/02/24 10:40:11;;;;;;;117.67;110.47;;;4.10;94.40;;;;;;4998056;28;20207;-89
2023/02/24 10:42:47;;;;;;;119.03;111.80;;;4.10;94.40;;;;;;4998084;28;20227;-89
2023/02/24 10:45:22;;;;;;;119.83;112.70;;;4.10;94.40;;;;;;4998100;28;20165;-89
2023/02/24 10:47:56;;;;;;;117.63;111.03;;;4.20;94.50;;;;;;5015259;28;20160;-89
2023/02/24 10:50:27;;;;;;;109.57;103.07;;;4.40;94.50;;;;;;4997659;28;20168;-89
2023/02/24 10:58:36;;;;;;;114.53;107.60;;;4.70;94.40;;;;;;5015526;28;20168;-90
2023/02/24 11:05:03;;;;;;;118.37;110.97;;;4.90;94.30;;;;;;4981483;28;20234;-89
2023/02/24 11:07:32;;;;;;;119.73;112.43;;;4.80;94.10;;;;;;4997543;28;20280;-89
2023/02/24 11:10:24;;;;;;;124.97;117.77;;;4.90;94.20;;;;;;4998496;28;20536;-89
2023/02/24 11:18:29;;;;;;;111.83;104.93;;;4.90;93.90;;;;;;5015141;28;20168;-88
2023/02/24 11:21:07;;;;;;;115.73;109.00;;;5.00;93.80;;;;;;4997234;28;20188;-88
2023/02/24 11:23:50;;;;;;;119.30;112.40;;;5.20;93.90;;;;;;4997152;28;20295;-89
2023/02/24 11:26:19;;;;;;;121.13;114.10;;;5.30;93.70;;;;;;4996987;28;20298;-89
2023/02/24 11:29:06;;;;;;;123.83;116.40;;;5.50;93.90;;;;;;4997077;28;20172;-90
2023/02/24 11:31:56;;;;;;;111.23;103.87;;;5.60;93.80;;;;;;4997034;28;20184;-89
2023/02/24 11:34:48;;;;;;;101.13;94.93;;;5.60;93.60;;;;;;4996969;28;20216;-88
2023/02/24 11:37:20;;;;;;;93.20;87.50;;;6.00;93.40;;;;;;4996897;28;20676;-89
2023/02/24 11:40:04;;;;;;;113.00;106.20;;;6.10;93.10;;;;;;4996998;28;20185;-89
2023/02/24 11:42:54;;;;;;;100.20;94.00;;;6.60;93.20;;;;;;4998733;28;20199;-90
2023/02/24 11:45:35;;;;;;;85.47;79.87;;;6.70;92.90;;;;;;4996704;28;20205;-90
2023/02/24 11:48:13;;;;;;;85.33;80.10;;;6.60;92.40;;;;;;4997094;28;20181;-89
2023/02/24 11:50:50;;;;;;;77.63;72.27;;;6.80;92.30;;;;;;4996932;28;20185;-88
2023/02/24 11:53:29;;;;;;;73.67;69.10;;;7.00;91.70;;;;;;4997502;28;20169;-88
2023/02/24 11:56:08;;;;;;;68.37;64.00;;;6.80;91.10;;;;;;4996460;28;20570;-88
2023/02/24 11:59:02;;;;;;;71.20;66.33;;;6.40;91.20;;;;;;4996537;28;20550;-88
2023/02/24 12:01:39;;;;;;;79.30;74.43;;;6.30;91.60;;;;;;4995648;28;20193;-89
2023/02/24 12:04:27;;;;;;;87.53;81.87;;;6.10;91.80;;;;;;4996273;28;20579;-88
2023/02/24 12:06:59;;;;;;;111.03;103.90;;;6.10;92.40;;;;;;4996186;28;20212;-88
2023/02/24 12:09:33;;;;;;;116.87;109.37;;;6.00;92.90;;;;;;4996497;28;20219;-89
2023/02/24 12:12:19;;;;;;;119.50;112.20;;;5.80;93.00;;;;;;4996646;28;20231;-89
2023/02/24 12:14:53;;;;;;;136.37;127.97;;;5.70;93.40;;;;;;4996389;28;20192;-90
2023/02/24 12:17:46;;;;;;;131.03;122.87;;;5.70;93.70;;;;;;4997157;28;20698;-91
2023/02/24 12:20:41;;;;;;;130.73;122.37;;;5.70;93.80;;;;;;4996179;28;20177;-91
2023/02/24 12:23:27;;;;;;;134.03;126.03;;;5.70;93.90;;;;;;4979162;28;20228;-91
2023/02/24 12:26:03;;;;;;;139.93;131.63;;;5.80;94.10;;;;;;4996256;28;20208;-90
2023/02/24 12:28:39;;;;;;;140.33;131.27;;;5.80;94.10;;;;;;4995989;28;20180;-90
2023/02/24 12:31:22;;;;;;;140.87;131.40;;;5.90;94.10;;;;;;4996830;28;20173;-90
2023/02/24 12:34:07;;;;;;;144.50;134.40;;;5.80;94.20;;;;;;4996083;28;20181;-90
2023/02/24 12:37:06;;;;;;;142.70;132.63;;;5.80;94.20;;;;;;4995906;28;20216;-90
2023/02/24 12:40:00;;;;;;;141.40;131.80;;;5.90;94.30;;;;;;4929462;28;20243;-90
2023/02/24 12:42:29;;;;;;;139.40;129.30;;;6.00;94.40;;;;;;4967986;28;20635;-91
2023/02/24 12:45:02;;;;;;;133.57;123.47;;;6.20;94.40;;;;;;4995742;28;20591;-91
2023/02/24 12:48:07;;;;;;;129.63;120.53;;;6.30;94.30;;;;;;4996001;28;20181;-90
2023/02/24 12:50:41;;;;;;;134.57;124.73;;;6.50;94.20;;;;;;4995765;28;20290;-91
2023/02/24 12:53:18;;;;;;;130.70;120.77;;;6.60;94.20;;;;;;4996805;28;20186;-91
2023/02/24 12:55:55;;;;;;;101.03;92.27;;;6.60;94.00;;;;;;4996769;28;20200;-90
2023/02/24 12:58:35;;;;;;;71.43;62.17;;;6.50;93.30;;;;;;4995780;28;20173;-89
2023/02/24 13:01:48;;;;;;;61.93;51.07;;;6.60;92.70;;;;;;4996129;28;20303;-88
2023/02/24 13:04:36;;;;;;;56.23;50.00;;;6.60;91.10;;;;;;4900077;29;20239;-89
2023/02/24 13:07:39;;;;;;;65.33;58.83;;;6.60;90.70;;;;;;4899423;29;20205;-89
2023/02/24 13:10:18;;;;;;;69.37;61.90;;;6.60;91.10;;;;;;4983080;28;20274;-90
2023/02/24 13:12:54;;;;;;;76.40;68.43;;;6.60;91.30;;;;;;4998256;28;20192;-89
2023/02/24 13:15:23;;;;;;;77.40;70.13;;;6.60;91.50;;;;;;4999693;28;20579;-89
2023/02/24 13:17:51;;;;;;;57.67;53.57;;;6.70;91.70;;;;;;5017045;28;20548;-89
2023/02/24 13:20:35;;;;;;;50.20;46.03;;;6.30;90.50;;;;;;4999442;28;20174;-89
2023/02/24 13:23:03;;;;;;;48.50;44.70;;;6.00;90.30;;;;;;5016927;28;20196;-89
2023/02/24 13:25:38;;;;;;;50.03;46.10;;;5.90;90.00;;;;;;4999433;28;20212;-89
2023/02/24 13:28:21;;;;;;;53.13;47.83;;;5.90;90.20;;;;;;4999396;28;20188;-89
2023/02/24 13:30:56;;;;;;;53.27;48.47;;;5.90;90.40;;;;;;4999370;28;20275;-89
2023/02/24 13:33:27;;;;;;;46.40;42.33;;;5.90;90.40;;;;;;4999364;28;20182;-89
2023/02/24 13:36:11;;;;;;;42.00;38.23;;;6.00;90.30;;;;;;4999605;28;20209;-88
2023/02/24 13:38:40;;;;;;;50.27;46.07;;;6.00;90.30;;;;;;5000001;28;20177;-89
2023/02/24 13:41:23;;;;;;;53.30;47.87;;;6.10;90.20;;;;;;4999387;28;20220;-89
2023/02/24 13:44:03;;;;;;;44.27;40.47;;;6.30;90.50;;;;;;5016859;28;20679;-89
2023/02/24 13:47:02;;;;;;;39.87;36.80;;;6.50;90.10;;;;;;4999733;28;20204;-89
2023/02/24 13:49:55;;;;;;;40.93;37.10;;;6.70;89.50;;;;;;4999490;28;20201;-89
2023/02/24 13:52:36;;;;;;;38.17;34.33;;;6.90;89.40;;;;;;4999025;28;20173;-88
2023/02/24 13:55:19;;;;;;;33.27;30.37;;;7.10;88.60;;;;;;4998861;28;20162;-89
2023/02/24 13:58:08;;;;;;;35.90;28.73;;;7.20;87.80;;;;;;4999771;28;20169;-89